sensor_id;sensor_type;location;lat;lon;timestamp;pressure;altitude;pressure_sealevel;temperature;humidity
13033;BME280;6583;42.632;23.298;2023-01-31T00:00:08;71198.16;;;-146.40;61.14
13033;BME280;6583;42.632;23.298;2023-01-31T00:02:35;71208.28;;;-146.40;59.73
13033;BME280;6583;42.632;23.298;2023-01-31T00:05:03;71218.41;;;-146.40;58.93
13033;BME280;6583;42.632;23.298;2023-01-31T00:07:30;71226.50;;;-146.40;59.56
13033;BME280;6583;42.632;23.298;2023-01-31T00:09:57;71226.50;;;-146.40;59.17
13033;BME280;6583;42.632;23.298;2023-01-31T00:12:23;71234.59;;;-146.40;58.62
13033;BME280;6583;42.632;23.298;2023-01-31T00:14:50;71238.66;;;-146.40;59.01
13033;BME280;6583;42.632;23.298;2023-01-31T00:17:17;71246.75;;;-146.40;59.76
13033;BME280;6583;42.632;23.298;2023-01-31T00:19:43;71271.03;;;-146.40;59.45
13033;BME280;6583;42.632;23.298;2023-01-31T00:22:11;71279.13;;;-146.40;60.38
13033;BME280;6583;42.632;23.298;2023-01-31T00:24:38;71291.25;;;-146.40;60.45
13033;BME280;6583;42.632;23.298;2023-01-31T00:27:05;71297.34;;;-146.40;61.35
13033;BME280;6583;42.632;23.298;2023-01-31T00:29:32;71307.44;;;-146.40;63.08
13033;BME280;6583;42.632;23.298;2023-01-31T00:31:59;71307.44;;;-146.40;62.45
13033;BME280;6583;42.632;23.298;2023-01-31T00:34:26;71323.63;;;-146.40;61.58
13033;BME280;6583;42.632;23.298;2023-01-31T00:36:52;71323.63;;;-146.40;62.28
13033;BME280;6583;42.632;23.298;2023-01-31T00:39:20;71327.69;;;-146.40;62.18
13033;BME280;6583;42.632;23.298;2023-01-31T00:41:47;71341.84;;;-146.40;60.82
13033;BME280;6583;42.632;23.298;2023-01-31T00:44:14;71347.91;;;-146.40;61.45
13033;BME280;6583;42.632;23.298;2023-01-31T00:46:40;71341.84;;;-146.40;62.54
13033;BME280;6583;42.632;23.298;2023-01-31T00:49:07;71339.81;;;-146.40;63.35
13033;BME280;6583;42.632;23.298;2023-01-31T00:51:34;71351.97;;;-146.40;63.55
13033;BME280;6583;42.632;23.298;2023-01-31T00:54:00;71360.06;;;-146.40;64.56
13033;BME280;6583;42.632;23.298;2023-01-31T00:56:29;71356.00;;;-146.40;64.39
13033;BME280;6583;42.632;23.298;2023-01-31T00:58:56;71351.97;;;-146.40;64.79
13033;BME280;6583;42.632;23.298;2023-01-31T01:01:24;71360.06;;;-146.40;64.26
13033;BME280;6583;42.632;23.298;2023-01-31T01:03:52;71382.31;;;-146.40;55.44
13033;BME280;6583;42.632;23.298;2023-01-31T01:06:20;71380.31;;;-146.40;50.76
13033;BME280;6583;42.632;23.298;2023-01-31T01:08:47;71366.13;;;-146.40;43.11
13033;BME280;6583;42.632;23.298;2023-01-31T01:11:17;71384.34;;;-146.40;49.82
13033;BME280;6583;42.632;23.298;2023-01-31T01:13:45;71380.31;;;-146.40;53.07
13033;BME280;6583;42.632;23.298;2023-01-31T01:16:14;71404.59;;;-146.40;47.79
13033;BME280;6583;42.632;23.298;2023-01-31T01:18:41;71392.44;;;-146.40;43.69
13033;BME280;6583;42.632;23.298;2023-01-31T01:21:13;71372.22;;;-146.40;45.42
13033;BME280;6583;42.632;23.298;2023-01-31T01:23:41;71358.03;;;-146.40;43.70
13033;BME280;6583;42.632;23.298;2023-01-31T01:26:12;71351.97;;;-146.40;43.52
13033;BME280;6583;42.632;23.298;2023-01-31T01:28:39;71329.72;;;-146.40;43.80
13033;BME280;6583;42.632;23.298;2023-01-31T01:31:09;71323.63;;;-146.40;42.81
13033;BME280;6583;42.632;23.298;2023-01-31T01:33:36;71315.53;;;-146.40;42.82
13033;BME280;6583;42.632;23.298;2023-01-31T01:36:04;71313.53;;;-146.40;42.37
13033;BME280;6583;42.632;23.298;2023-01-31T01:38:32;71299.34;;;-146.40;40.87
13033;BME280;6583;42.632;23.298;2023-01-31T01:40:59;71287.22;;;-146.40;42.09
13033;BME280;6583;42.632;23.298;2023-01-31T01:43:40;71295.31;;;-146.40;42.65
13033;BME280;6583;42.632;23.298;2023-01-31T01:46:11;71295.31;;;-146.40;40.33
13033;BME280;6583;42.632;23.298;2023-01-31T01:48:39;71291.25;;;-146.40;39.81
13033;BME280;6583;42.632;23.298;2023-01-31T01:51:07;71283.16;;;-146.40;40.29
13033;BME280;6583;42.632;23.298;2023-01-31T01:53:37;71283.16;;;-146.40;39.65
13033;BME280;6583;42.632;23.298;2023-01-31T01:56:07;71281.13;;;-146.40;36.28
13033;BME280;6583;42.632;23.298;2023-01-31T01:58:39;71293.28;;;-146.40;35.33
13033;BME280;6583;42.632;23.298;2023-01-31T02:01:09;71287.22;;;-146.40;37.42
13033;BME280;6583;42.632;23.298;2023-01-31T02:03:38;71293.28;;;-146.40;39.29
13033;BME280;6583;42.632;23.298;2023-01-31T02:06:06;71289.25;;;-146.40;39.77
13033;BME280;6583;42.632;23.298;2023-01-31T02:08:35;71289.25;;;-146.40;40.19
13033;BME280;6583;42.632;23.298;2023-01-31T02:11:07;71299.34;;;-146.40;40.38
13033;BME280;6583;42.632;23.298;2023-01-31T02:13:37;71287.22;;;-146.40;39.91
13033;BME280;6583;42.632;23.298;2023-01-31T02:16:05;71295.31;;;-146.40;38.18
13033;BME280;6583;42.632;23.298;2023-01-31T02:18:34;71303.41;;;-146.40;36.19
13033;BME280;6583;42.632;23.298;2023-01-31T02:24:39;71309.47;;;-146.40;38.54
13033;BME280;6583;42.632;23.298;2023-01-31T02:33:05;71309.47;;;-146.40;39.00
13033;BME280;6583;42.632;23.298;2023-01-31T02:35:47;71303.41;;;-146.40;39.91
13033;BME280;6583;42.632;23.298;2023-01-31T02:38:28;71299.34;;;-146.40;40.81
13033;BME280;6583;42.632;23.298;2023-01-31T02:41:01;71301.38;;;-146.40;41.35
13033;BME280;6583;42.632;23.298;2023-01-31T02:43:35;71295.31;;;-146.40;45.27
13033;BME280;6583;42.632;23.298;2023-01-31T02:46:35;71303.41;;;-146.40;45.22
13033;BME280;6583;42.632;23.298;2023-01-31T02:49:09;71287.22;;;-146.40;46.93
13033;BME280;6583;42.632;23.298;2023-01-31T02:51:44;71287.22;;;-146.40;46.21
13033;BME280;6583;42.632;23.298;2023-01-31T02:54:33;71291.25;;;-146.40;46.49
13033;BME280;6583;42.632;23.298;2023-01-31T02:57:15;71297.34;;;-146.40;47.71
13033;BME280;6583;42.632;23.298;2023-01-31T02:59:42;71307.44;;;-146.40;47.55
13033;BME280;6583;42.632;23.298;2023-01-31T03:02:10;71321.63;;;-146.40;48.38
13033;BME280;6583;42.632;23.298;2023-01-31T03:04:38;71321.63;;;-146.40;50.04
13033;BME280;6583;42.632;23.298;2023-01-31T03:07:09;71325.66;;;-146.40;49.88
13033;BME280;6583;42.632;23.298;2023-01-31T03:09:48;71335.78;;;-146.40;50.94
13033;BME280;6583;42.632;23.298;2023-01-31T03:12:30;71341.84;;;-146.40;52.19
13033;BME280;6583;42.632;23.298;2023-01-31T03:15:06;71356.00;;;-146.40;52.13
13033;BME280;6583;42.632;23.298;2023-01-31T03:17:46;71356.00;;;-146.40;54.28
13033;BME280;6583;42.632;23.298;2023-01-31T03:20:19;71388.41;;;-146.40;55.82
13033;BME280;6583;42.632;23.298;2023-01-31T03:22:50;71390.41;;;-146.40;57.39
13033;BME280;6583;42.632;23.298;2023-01-31T03:25:20;71418.75;;;-146.40;57.67
13033;BME280;6583;42.632;23.298;2023-01-31T03:27:51;71410.66;;;-146.40;59.72
13033;BME280;6583;42.632;23.298;2023-01-31T03:30:25;71408.63;;;-146.40;60.92
13033;BME280;6583;42.632;23.298;2023-01-31T03:32:58;71402.56;;;-146.40;61.75
13033;BME280;6583;42.632;23.298;2023-01-31T03:35:29;71432.91;;;-146.40;62.08
13033;BME280;6583;42.632;23.298;2023-01-31T03:38:03;71430.91;;;-146.40;62.77
13033;BME280;6583;42.632;23.298;2023-01-31T03:40:36;71465.28;;;-146.40;63.05
13033;BME280;6583;42.632;23.298;2023-01-31T03:43:11;71451.13;;;-146.40;63.45
13033;BME280;6583;42.632;23.298;2023-01-31T03:45:44;71457.19;;;-146.40;64.59
13033;BME280;6583;42.632;23.298;2023-01-31T03:48:13;71461.25;;;-146.40;65.11
13033;BME280;6583;42.632;23.298;2023-01-31T03:50:48;71447.09;;;-146.40;66.61
13033;BME280;6583;42.632;23.298;2023-01-31T03:53:21;71467.31;;;-146.40;66.48
13033;BME280;6583;42.632;23.298;2023-01-31T03:55:53;71461.25;;;-146.40;66.90
13033;BME280;6583;42.632;23.298;2023-01-31T03:58:25;71465.28;;;-146.40;67.02
13033;BME280;6583;42.632;23.298;2023-01-31T04:00:55;71473.41;;;-146.40;67.23
13033;BME280;6583;42.632;23.298;2023-01-31T04:03:27;71465.28;;;-146.40;67.01
13033;BME280;6583;42.632;23.298;2023-01-31T04:05:57;71479.47;;;-146.40;66.76
13033;BME280;6583;42.632;23.298;2023-01-31T04:08:24;71475.41;;;-146.40;66.77
13033;BME280;6583;42.632;23.298;2023-01-31T04:10:51;71479.47;;;-146.40;66.64
13033;BME280;6583;42.632;23.298;2023-01-31T04:13:19;71483.50;;;-146.40;67.72
13033;BME280;6583;42.632;23.298;2023-01-31T04:15:47;71501.72;;;-146.40;67.17
13033;BME280;6583;42.632;23.298;2023-01-31T04:18:13;71503.75;;;-146.40;68.36
13033;BME280;6583;42.632;23.298;2023-01-31T04:20:40;71503.75;;;-146.40;69.60
13033;BME280;6583;42.632;23.298;2023-01-31T04:23:08;71505.78;;;-146.40;70.20
13033;BME280;6583;42.632;23.298;2023-01-31T04:25:35;71521.97;;;-146.40;69.83
13033;BME280;6583;42.632;23.298;2023-01-31T04:28:01;71517.91;;;-146.40;70.54
13033;BME280;6583;42.632;23.298;2023-01-31T04:30:28;71524.00;;;-146.40;70.85
13033;BME280;6583;42.632;23.298;2023-01-31T04:32:56;71519.94;;;-146.40;70.86
13033;BME280;6583;42.632;23.298;2023-01-31T04:35:22;71524.00;;;-146.40;70.82
13033;BME280;6583;42.632;23.298;2023-01-31T04:37:49;71534.09;;;-146.40;71.06
13033;BME280;6583;42.632;23.298;2023-01-31T04:40:17;71530.06;;;-146.40;71.72
13033;BME280;6583;42.632;23.298;2023-01-31T04:42:44;71540.19;;;-146.40;71.81
13033;BME280;6583;42.632;23.298;2023-01-31T04:45:11;71538.16;;;-146.40;71.72
13033;BME280;6583;42.632;23.298;2023-01-31T04:47:37;71544.22;;;-146.40;71.95
13033;BME280;6583;42.632;23.298;2023-01-31T04:50:05;71544.22;;;-146.40;72.64
13033;BME280;6583;42.632;23.298;2023-01-31T04:52:32;71560.41;;;-146.40;71.96
13033;BME280;6583;42.632;23.298;2023-01-31T04:54:58;71556.38;;;-146.40;71.85
13033;BME280;6583;42.632;23.298;2023-01-31T04:57:26;71560.41;;;-146.40;72.18
13033;BME280;6583;42.632;23.298;2023-01-31T04:59:53;71562.44;;;-146.40;72.53
13033;BME280;6583;42.632;23.298;2023-01-31T05:02:20;71548.28;;;-146.40;72.19
13033;BME280;6583;42.632;23.298;2023-01-31T05:04:47;71548.28;;;-146.40;72.06
13033;BME280;6583;42.632;23.298;2023-01-31T05:07:14;71548.28;;;-146.40;71.84
13033;BME280;6583;42.632;23.298;2023-01-31T05:09:40;71550.28;;;-146.40;71.79
13033;BME280;6583;42.632;23.298;2023-01-31T05:12:08;71576.59;;;-146.40;70.98
13033;BME280;6583;42.632;23.298;2023-01-31T05:14:36;71574.59;;;-146.40;71.20
13033;BME280;6583;42.632;23.298;2023-01-31T05:17:03;71560.41;;;-146.40;71.04
13033;BME280;6583;42.632;23.298;2023-01-31T05:19:30;71558.38;;;-146.40;70.11
13033;BME280;6583;42.632;23.298;2023-01-31T05:21:56;71562.44;;;-146.40;70.70
13033;BME280;6583;42.632;23.298;2023-01-31T05:24:25;71570.53;;;-146.40;69.99
13033;BME280;6583;42.632;23.298;2023-01-31T05:26:52;71544.22;;;-146.40;70.54
13033;BME280;6583;42.632;23.298;2023-01-31T05:29:23;71556.38;;;-146.40;69.91
13033;BME280;6583;42.632;23.298;2023-01-31T05:31:52;71548.28;;;-146.40;69.69
13033;BME280;6583;42.632;23.298;2023-01-31T05:34:20;71554.34;;;-146.40;69.13
13033;BME280;6583;42.632;23.298;2023-01-31T05:36:46;71542.19;;;-146.40;69.54
13033;BME280;6583;42.632;23.298;2023-01-31T05:39:13;71544.22;;;-146.40;70.13
13033;BME280;6583;42.632;23.298;2023-01-31T05:41:40;71550.28;;;-146.40;69.87
13033;BME280;6583;42.632;23.298;2023-01-31T05:44:06;71554.34;;;-146.40;70.51
13033;BME280;6583;42.632;23.298;2023-01-31T05:46:33;71546.25;;;-146.40;69.74
13033;BME280;6583;42.632;23.298;2023-01-31T05:49:01;71550.28;;;-146.40;70.09
13033;BME280;6583;42.632;23.298;2023-01-31T05:51:28;71550.28;;;-146.40;70.06
13033;BME280;6583;42.632;23.298;2023-01-31T05:53:55;71554.34;;;-146.40;69.85
13033;BME280;6583;42.632;23.298;2023-01-31T05:56:21;71570.53;;;-146.40;70.03
13033;BME280;6583;42.632;23.298;2023-01-31T05:58:48;71564.47;;;-146.40;70.42
13033;BME280;6583;42.632;23.298;2023-01-31T06:01:16;71566.50;;;-146.40;70.90
13033;BME280;6583;42.632;23.298;2023-01-31T06:03:42;71560.41;;;-146.40;71.48
13033;BME280;6583;42.632;23.298;2023-01-31T06:06:11;71556.38;;;-146.40;71.74
13033;BME280;6583;42.632;23.298;2023-01-31T06:08:38;71562.44;;;-146.40;71.30
13033;BME280;6583;42.632;23.298;2023-01-31T06:11:07;71574.59;;;-146.40;71.86
13033;BME280;6583;42.632;23.298;2023-01-31T06:13:35;71556.38;;;-146.40;72.58
13033;BME280;6583;42.632;23.298;2023-01-31T06:16:02;71546.25;;;-146.40;72.04
13033;BME280;6583;42.632;23.298;2023-01-31T06:18:29;71544.22;;;-146.40;72.48
13033;BME280;6583;42.632;23.298;2023-01-31T06:20:56;71554.34;;;-146.40;72.36
13033;BME280;6583;42.632;23.298;2023-01-31T06:23:24;71544.22;;;-146.40;72.48
13033;BME280;6583;42.632;23.298;2023-01-31T06:25:51;71540.19;;;-146.40;72.71
13033;BME280;6583;42.632;23.298;2023-01-31T06:28:19;71530.06;;;-146.40;72.11
13033;BME280;6583;42.632;23.298;2023-01-31T06:30:47;71538.16;;;-146.40;71.67
13033;BME280;6583;42.632;23.298;2023-01-31T06:33:13;71534.09;;;-146.40;71.67
13033;BME280;6583;42.632;23.298;2023-01-31T06:35:41;71519.94;;;-146.40;71.53
13033;BME280;6583;42.632;23.298;2023-01-31T06:38:07;71532.09;;;-146.40;71.11
13033;BME280;6583;42.632;23.298;2023-01-31T06:40:38;71513.88;;;-146.40;70.77
13033;BME280;6583;42.632;23.298;2023-01-31T06:43:04;71515.91;;;-146.40;70.67
13033;BME280;6583;42.632;23.298;2023-01-31T06:45:31;71517.91;;;-146.40;70.34
13033;BME280;6583;42.632;23.298;2023-01-31T06:47:58;71509.81;;;-146.40;71.20
13033;BME280;6583;42.632;23.298;2023-01-31T06:50:25;71515.91;;;-146.40;70.55
13033;BME280;6583;42.632;23.298;2023-01-31T06:52:52;71509.81;;;-146.40;71.53
13033;BME280;6583;42.632;23.298;2023-01-31T06:55:19;71519.94;;;-146.40;71.63
13033;BME280;6583;42.632;23.298;2023-01-31T06:57:47;71519.94;;;-146.40;71.50
13033;BME280;6583;42.632;23.298;2023-01-31T07:00:15;71526.00;;;-146.40;70.58
13033;BME280;6583;42.632;23.298;2023-01-31T07:02:43;71530.06;;;-146.40;70.59
13033;BME280;6583;42.632;23.298;2023-01-31T07:05:09;71513.88;;;-146.40;70.63
13033;BME280;6583;42.632;23.298;2023-01-31T07:07:36;71505.78;;;-146.40;71.29
13033;BME280;6583;42.632;23.298;2023-01-31T07:10:03;71505.78;;;-146.40;69.99
13033;BME280;6583;42.632;23.298;2023-01-31T07:12:30;71497.69;;;-146.40;68.03
13033;BME280;6583;42.632;23.298;2023-01-31T07:14:58;71493.63;;;-146.40;68.04
13033;BME280;6583;42.632;23.298;2023-01-31T07:17:24;71495.66;;;-146.40;67.31
13033;BME280;6583;42.632;23.298;2023-01-31T07:19:51;71479.47;;;-146.40;68.12
13033;BME280;6583;42.632;23.298;2023-01-31T07:22:18;71485.53;;;-146.40;68.46
13033;BME280;6583;42.632;23.298;2023-01-31T07:24:44;71483.50;;;-146.40;69.37
13033;BME280;6583;42.632;23.298;2023-01-31T07:27:13;71501.72;;;-146.40;69.33
13033;BME280;6583;42.632;23.298;2023-01-31T07:29:40;71485.53;;;-146.40;70.46
13033;BME280;6583;42.632;23.298;2023-01-31T07:32:08;71511.84;;;-146.40;70.93
13033;BME280;6583;42.632;23.298;2023-01-31T07:34:35;71509.81;;;-146.40;71.43
13033;BME280;6583;42.632;23.298;2023-01-31T07:37:02;71517.91;;;-146.40;72.18
13033;BME280;6583;42.632;23.298;2023-01-31T07:39:29;71511.84;;;-146.40;72.11
13033;BME280;6583;42.632;23.298;2023-01-31T07:41:56;71509.81;;;-146.40;71.86
13033;BME280;6583;42.632;23.298;2023-01-31T07:44:22;71509.81;;;-146.40;72.12
13033;BME280;6583;42.632;23.298;2023-01-31T07:46:49;71499.69;;;-146.40;72.43
13033;BME280;6583;42.632;23.298;2023-01-31T07:49:20;71503.75;;;-146.40;71.62
13033;BME280;6583;42.632;23.298;2023-01-31T07:51:47;71495.66;;;-146.40;71.57
13033;BME280;6583;42.632;23.298;2023-01-31T07:54:13;71505.78;;;-146.40;72.27
13033;BME280;6583;42.632;23.298;2023-01-31T07:56:40;71505.78;;;-146.40;72.17
13033;BME280;6583;42.632;23.298;2023-01-31T07:59:07;71493.63;;;-146.40;72.80
13033;BME280;6583;42.632;23.298;2023-01-31T08:01:33;71495.66;;;-146.40;73.36
13033;BME280;6583;42.632;23.298;2023-01-31T08:04:17;71491.59;;;-146.40;73.40
13033;BME280;6583;42.632;23.298;2023-01-31T08:06:46;71477.44;;;-146.40;73.19
13033;BME280;6583;42.632;23.298;2023-01-31T08:09:13;71489.59;;;-146.40;72.00
13033;BME280;6583;42.632;23.298;2023-01-31T08:11:40;71473.41;;;-146.40;72.41
13033;BME280;6583;42.632;23.298;2023-01-31T08:14:06;71467.31;;;-146.40;70.95
13033;BME280;6583;42.632;23.298;2023-01-31T08:16:34;71479.47;;;-146.40;70.37
13033;BME280;6583;42.632;23.298;2023-01-31T08:19:02;71471.38;;;-146.40;70.41
13033;BME280;6583;42.632;23.298;2023-01-31T08:21:28;71485.53;;;-146.40;70.40
13033;BME280;6583;42.632;23.298;2023-01-31T08:23:56;71479.47;;;-146.40;70.10
13033;BME280;6583;42.632;23.298;2023-01-31T08:26:23;71481.50;;;-146.40;70.83
13033;BME280;6583;42.632;23.298;2023-01-31T08:28:50;71469.34;;;-146.40;70.57
13033;BME280;6583;42.632;23.298;2023-01-31T08:31:20;71457.19;;;-146.40;70.46
13033;BME280;6583;42.632;23.298;2023-01-31T08:33:47;71449.09;;;-146.40;70.13
13033;BME280;6583;42.632;23.298;2023-01-31T08:36:17;71441.00;;;-146.40;70.53
13033;BME280;6583;42.632;23.298;2023-01-31T08:38:44;71422.81;;;-146.40;69.94
13033;BME280;6583;42.632;23.298;2023-01-31T08:41:12;71439.00;;;-146.40;69.11
13033;BME280;6583;42.632;23.298;2023-01-31T08:43:39;71428.88;;;-146.40;69.62
13033;BME280;6583;42.632;23.298;2023-01-31T08:46:06;71424.81;;;-146.40;69.96
13033;BME280;6583;42.632;23.298;2023-01-31T08:48:33;71420.78;;;-146.40;69.71
13033;BME280;6583;42.632;23.298;2023-01-31T08:51:00;71406.59;;;-146.40;69.75
13033;BME280;6583;42.632;23.298;2023-01-31T08:53:27;71404.59;;;-146.40;69.48
13033;BME280;6583;42.632;23.298;2023-01-31T08:55:57;71406.59;;;-146.40;69.33
13033;BME280;6583;42.632;23.298;2023-01-31T08:58:25;71408.63;;;-146.40;68.31
13033;BME280;6583;42.632;23.298;2023-01-31T09:00:52;71388.41;;;-146.40;69.85
13033;BME280;6583;42.632;23.298;2023-01-31T09:03:19;71406.59;;;-146.40;65.40
13033;BME280;6583;42.632;23.298;2023-01-31T09:05:45;71388.41;;;-146.40;64.64
13033;BME280;6583;42.632;23.298;2023-01-31T09:08:12;71376.25;;;-146.40;64.23
13033;BME280;6583;42.632;23.298;2023-01-31T09:10:39;71378.28;;;-146.40;63.70
13033;BME280;6583;42.632;23.298;2023-01-31T09:13:05;71372.22;;;-146.40;63.00
13033;BME280;6583;42.632;23.298;2023-01-31T09:15:33;71372.22;;;-146.40;63.08
13033;BME280;6583;42.632;23.298;2023-01-31T09:18:00;71368.16;;;-146.40;63.42
13033;BME280;6583;42.632;23.298;2023-01-31T09:20:27;71360.06;;;-146.40;63.71
13033;BME280;6583;42.632;23.298;2023-01-31T09:22:54;71364.13;;;-146.40;63.37
13033;BME280;6583;42.632;23.298;2023-01-31T09:25:21;71360.06;;;-146.40;63.24
13033;BME280;6583;42.632;23.298;2023-01-31T09:27:47;71372.22;;;-146.40;62.54
13033;BME280;6583;42.632;23.298;2023-01-31T09:30:14;71360.06;;;-146.40;63.13
13033;BME280;6583;42.632;23.298;2023-01-31T09:32:43;71341.84;;;-146.40;63.28
13033;BME280;6583;42.632;23.298;2023-01-31T09:35:10;71317.56;;;-146.40;64.10
13033;BME280;6583;42.632;23.298;2023-01-31T09:37:37;71299.34;;;-146.40;63.31
13033;BME280;6583;42.632;23.298;2023-01-31T09:40:05;71289.25;;;-146.40;61.87
13033;BME280;6583;42.632;23.298;2023-01-31T09:42:34;71295.31;;;-146.40;60.73
13033;BME280;6583;42.632;23.298;2023-01-31T09:45:11;71291.25;;;-146.40;60.54
13033;BME280;6583;42.632;23.298;2023-01-31T09:47:44;71275.06;;;-146.40;61.10
13033;BME280;6583;42.632;23.298;2023-01-31T09:50:18;71279.13;;;-146.40;60.37
13033;BME280;6583;42.632;23.298;2023-01-31T09:52:46;71275.06;;;-146.40;60.61
13033;BME280;6583;42.632;23.298;2023-01-31T09:55:15;71250.78;;;-146.40;61.82
13033;BME280;6583;42.632;23.298;2023-01-31T09:57:46;71248.75;;;-146.40;59.17
13033;BME280;6583;42.632;23.298;2023-01-31T10:00:22;71262.94;;;-146.40;56.16
13033;BME280;6583;42.632;23.298;2023-01-31T10:03:21;71246.75;;;-146.40;56.43
13033;BME280;6583;42.632;23.298;2023-01-31T10:05:58;71238.66;;;-146.40;56.44
13033;BME280;6583;42.632;23.298;2023-01-31T10:08:38;71240.66;;;-146.40;56.55
13033;BME280;6583;42.632;23.298;2023-01-31T10:11:10;71242.69;;;-146.40;57.36
13033;BME280;6583;42.632;23.298;2023-01-31T10:13:45;71228.53;;;-146.40;58.34
13033;BME280;6583;42.632;23.298;2023-01-31T10:16:22;71230.56;;;-146.40;58.42
13033;BME280;6583;42.632;23.298;2023-01-31T10:18:56;71220.44;;;-146.40;57.60
13033;BME280;6583;42.632;23.298;2023-01-31T10:21:29;71208.28;;;-146.40;58.24
13033;BME280;6583;42.632;23.298;2023-01-31T10:24:02;71216.38;;;-146.40;56.71
13033;BME280;6583;42.632;23.298;2023-01-31T10:26:33;71226.50;;;-146.40;57.30
13033;BME280;6583;42.632;23.298;2023-01-31T10:29:05;71220.44;;;-146.40;58.29
13033;BME280;6583;42.632;23.298;2023-01-31T10:31:40;71194.13;;;-146.40;58.75
13033;BME280;6583;42.632;23.298;2023-01-31T10:34:13;71190.06;;;-146.40;56.84
13033;BME280;6583;42.632;23.298;2023-01-31T10:36:44;71171.88;;;-146.40;56.00
13033;BME280;6583;42.632;23.298;2023-01-31T10:39:17;71171.88;;;-146.40;54.98
13033;BME280;6583;42.632;23.298;2023-01-31T10:42:00;71181.97;;;-146.40;54.92
13033;BME280;6583;42.632;23.298;2023-01-31T10:44:39;71186.03;;;-146.40;55.23
13033;BME280;6583;42.632;23.298;2023-01-31T10:47:11;71194.13;;;-146.40;54.73
13033;BME280;6583;42.632;23.298;2023-01-31T10:49:40;71177.94;;;-146.40;55.55
13033;BME280;6583;42.632;23.298;2023-01-31T10:52:20;71181.97;;;-146.40;54.15
13033;BME280;6583;42.632;23.298;2023-01-31T10:54:58;71192.09;;;-146.40;53.55
13033;BME280;6583;42.632;23.298;2023-01-31T10:57:28;71204.25;;;-146.40;55.66
13033;BME280;6583;42.632;23.298;2023-01-31T10:59:55;71216.38;;;-146.40;56.27
13033;BME280;6583;42.632;23.298;2023-01-31T11:02:23;71208.28;;;-146.40;57.40
13033;BME280;6583;42.632;23.298;2023-01-31T11:04:53;71212.34;;;-146.40;57.45
13033;BME280;6583;42.632;23.298;2023-01-31T11:07:21;71240.66;;;-146.40;57.99
13033;BME280;6583;42.632;23.298;2023-01-31T11:09:50;71250.78;;;-146.40;59.68
13033;BME280;6583;42.632;23.298;2023-01-31T11:12:19;71283.16;;;-146.40;60.61
13033;BME280;6583;42.632;23.298;2023-01-31T11:15:03;71301.38;;;-146.40;62.18
13033;BME280;6583;42.632;23.298;2023-01-31T11:17:35;71309.47;;;-146.40;63.20
13033;BME280;6583;42.632;23.298;2023-01-31T11:20:04;71327.69;;;-146.40;63.80
13033;BME280;6583;42.632;23.298;2023-01-31T11:22:32;71335.78;;;-146.40;65.21
13033;BME280;6583;42.632;23.298;2023-01-31T11:25:03;71343.88;;;-146.40;66.17
13033;BME280;6583;42.632;23.298;2023-01-31T11:27:35;71347.91;;;-146.40;66.62
13033;BME280;6583;42.632;23.298;2023-01-31T11:30:04;71339.81;;;-146.40;67.11
13033;BME280;6583;42.632;23.298;2023-01-31T11:32:35;71343.88;;;-146.40;67.66
13033;BME280;6583;42.632;23.298;2023-01-31T11:35:06;71335.78;;;-146.40;67.95
13033;BME280;6583;42.632;23.298;2023-01-31T11:37:49;71356.00;;;-146.40;69.25
13033;BME280;6583;42.632;23.298;2023-01-31T11:42:53;71341.84;;;-146.40;70.01
13033;BME280;6583;42.632;23.298;2023-01-31T11:45:22;71351.97;;;-146.40;70.28
13033;BME280;6583;42.632;23.298;2023-01-31T11:47:50;71356.00;;;-146.40;70.85
13033;BME280;6583;42.632;23.298;2023-01-31T11:50:20;71349.94;;;-146.40;70.54
13033;BME280;6583;42.632;23.298;2023-01-31T11:52:53;71343.88;;;-146.40;70.57
13033;BME280;6583;42.632;23.298;2023-01-31T11:55:20;71343.88;;;-146.40;71.21
13033;BME280;6583;42.632;23.298;2023-01-31T11:57:54;71356.00;;;-146.40;71.74
13033;BME280;6583;42.632;23.298;2023-01-31T12:00:23;71374.22;;;-146.40;72.56
13033;BME280;6583;42.632;23.298;2023-01-31T12:02:57;71356.00;;;-146.40;74.38
13033;BME280;6583;42.632;23.298;2023-01-31T12:05:34;71360.06;;;-146.40;74.29
13033;BME280;6583;42.632;23.298;2023-01-31T12:08:01;71372.22;;;-146.40;74.42
13033;BME280;6583;42.632;23.298;2023-01-31T12:10:32;71360.06;;;-146.40;74.29
13033;BME280;6583;42.632;23.298;2023-01-31T12:13:00;71370.19;;;-146.40;74.33
13033;BME280;6583;42.632;23.298;2023-01-31T12:15:28;71378.28;;;-146.40;74.00
13033;BME280;6583;42.632;23.298;2023-01-31T12:17:57;71374.22;;;-146.40;74.76
13033;BME280;6583;42.632;23.298;2023-01-31T12:20:34;71360.06;;;-146.40;74.72
13033;BME280;6583;42.632;23.298;2023-01-31T12:23:15;71368.16;;;-146.40;75.10
13033;BME280;6583;42.632;23.298;2023-01-31T12:25:50;71354.00;;;-146.40;74.86
13033;BME280;6583;42.632;23.298;2023-01-31T12:28:32;71347.91;;;-146.40;74.13
13033;BME280;6583;42.632;23.298;2023-01-31T12:31:15;71354.00;;;-146.40;73.42
13033;BME280;6583;42.632;23.298;2023-01-31T12:34:03;71358.03;;;-146.40;72.01
13033;BME280;6583;42.632;23.298;2023-01-31T12:36:46;71349.94;;;-146.40;73.06
13033;BME280;6583;42.632;23.298;2023-01-31T12:39:31;71356.00;;;-146.40;72.29
13033;BME280;6583;42.632;23.298;2023-01-31T12:42:13;71343.88;;;-146.40;72.63
13033;BME280;6583;42.632;23.298;2023-01-31T12:44:51;71356.00;;;-146.40;71.19
13033;BME280;6583;42.632;23.298;2023-01-31T12:47:43;71349.94;;;-146.40;71.46
13033;BME280;6583;42.632;23.298;2023-01-31T12:50:21;71374.22;;;-146.40;71.31
13033;BME280;6583;42.632;23.298;2023-01-31T12:53:05;71368.16;;;-146.40;71.12
13033;BME280;6583;42.632;23.298;2023-01-31T12:55:45;71360.06;;;-146.40;70.72
13033;BME280;6583;42.632;23.298;2023-01-31T12:58:27;71396.50;;;-146.40;70.42
13033;BME280;6583;42.632;23.298;2023-01-31T13:01:02;71374.22;;;-146.40;71.58
13033;BME280;6583;42.632;23.298;2023-01-31T13:03:37;71376.25;;;-146.40;72.63
13033;BME280;6583;42.632;23.298;2023-01-31T13:06:11;71368.16;;;-146.40;71.80